Time;durP1;ratioP1;P1;durP2;ratioP2;P2;SDS_P1;SDS_P2;PMS_P1;PMS_P2;Temp;Humidity;BMP_temperature;BMP_pressure;BME280_temperature;BME280_humidity;BME280_pressure;Samples;Min_cycle;Max_cycle;Signal;HPM_P1;HPM_P2
2022/05/23 00:01:58;;;;;;;1678.35;998.95;;;14.50;41.30;;;;;;5090109;28;20048;-81
2022/05/23 00:04:24;;;;;;;1999.90;999.90;;;14.50;29.20;;;;;;5109260;28;20048;-83
2022/05/23 00:06:51;;;;;;;895.53;815.15;;;14.50;29.00;;;;;;5092067;28;20406;-82
2022/05/23 00:09:17;;;;;;;1730.18;999.90;;;14.50;1.40;;;;;;5093111;28;20039;-81
2022/05/23 00:11:43;;;;;;;752.42;677.13;;;14.40;4.30;;;;;;5093913;28;20122;-82
2022/05/23 00:14:10;;;;;;;1599.75;999.90;;;14.40;2.10;;;;;;5114841;28;20173;-84
2022/05/23 00:16:42;;;;;;;1123.22;938.95;;;14.40;18.30;;;;;;5096035;28;20062;-82
2022/05/23 00:19:11;;;;;;;1999.90;999.90;;;14.40;5.60;;;;;;5096968;28;20425;-83
2022/05/23 00:21:41;;;;;;;948.72;855.35;;;14.30;20.50;;;;;;5096127;28;20043;-82
2022/05/23 00:24:08;;;;;;;1111.90;930.63;;;14.60;15.00;;;;;;5114534;28;20043;-82
2022/05/23 00:26:35;;;;;;;1702.93;999.90;;;14.30;21.60;;;;;;5095548;28;20479;-82
2022/05/23 00:29:02;;;;;;;1970.10;999.90;;;14.20;7.30;;;;;;5096467;28;20043;-83
2022/05/23 00:31:28;;;;;;;1999.90;999.90;;;14.10;34.90;;;;;;5062753;28;20487;-83
2022/05/23 00:36:38;;;;;;;1999.90;999.90;;;14.10;21.00;;;;;;5098335;28;20138;-85
2022/05/23 00:39:04;;;;;;;1999.90;999.90;;;14.10;37.40;;;;;;5113979;28;20131;-82
2022/05/23 00:44:27;;;;;;;1999.90;999.90;;;14.00;42.10;;;;;;5096285;28;20054;-82
2022/05/23 00:46:59;;;;;;;1942.55;999.90;;;14.50;52.80;;;;;;5095434;28;20074;-81
2022/05/23 00:49:35;;;;;;;1834.00;999.90;;;14.00;35.20;;;;;;5096141;28;20051;-81
2022/05/23 00:52:05;;;;;;;1998.13;999.90;;;13.90;49.70;;;;;;5078560;28;20051;-82
2022/05/23 00:54:38;;;;;;;1506.78;999.90;;;13.80;48.50;;;;;;5093885;28;20043;-84
2022/05/23 00:57:05;;;;;;;1999.90;999.90;;;13.80;61.70;;;;;;5095710;28;20055;-81
2022/05/23 00:59:33;;;;;;;1734.43;999.90;;;13.80;72.20;;;;;;5113913;28;20051;-82
2022/05/23 01:02:02;;;;;;;1206.90;917.13;;;13.80;60.80;;;;;;5093718;28;20127;-81
2022/05/23 01:04:30;;;;;;;1999.90;999.90;;;13.70;54.90;;;;;;5061118;28;20141;-81
2022/05/23 01:06:56;;;;;;;1908.75;999.90;;;13.60;48.40;;;;;;5111844;28;20484;-81
2022/05/23 01:09:25;;;;;;;1605.65;999.90;;;13.60;36.90;;;;;;5095643;28;20061;-83
2022/05/23 01:11:53;;;;;;;1999.90;999.90;;;13.50;43.60;;;;;;5094249;28;20051;-83
2022/05/23 01:14:20;;;;;;;1436.10;993.20;;;13.50;56.40;;;;;;5113530;28;20102;-82
2022/05/23 01:16:46;;;;;;;1999.90;999.90;;;13.50;63.00;;;;;;5077429;28;20063;-83
2022/05/23 01:19:12;;;;;;;1999.90;999.90;;;13.50;52.20;;;;;;5094845;28;20498;-80
2022/05/23 01:21:57;;;;;;;1540.28;983.85;;;13.40;67.30;;;;;;5095151;28;20058;-81
2022/05/23 01:24:45;;;;;;;1999.90;999.90;;;13.30;53.70;;;;;;5095644;28;20549;-84
2022/05/23 01:27:11;;;;;;;1999.90;999.90;;;13.30;69.60;;;;;;5095955;28;20040;-83
2022/05/23 01:29:37;;;;;;;1921.97;999.90;;;14.10;78.70;;;;;;5115876;28;20043;-81
2022/05/23 01:32:04;;;;;;;1999.90;999.90;;;13.20;79.20;;;;;;5113073;28;20143;-81
2022/05/23 01:34:29;;;;;;;1999.90;999.90;;;13.20;79.50;;;;;;5113588;28;20044;-81
2022/05/23 01:36:58;;;;;;;1999.90;999.90;;;14.30;91.00;;;;;;5112297;28;20101;-81
2022/05/23 01:39:24;;;;;;;1678.95;999.90;;;13.10;85.20;;;;;;5112440;28;20082;-81
2022/05/23 01:41:49;;;;;;;1482.20;999.90;;;13.10;90.00;;;;;;5078915;28;20492;-82
2022/05/23 01:44:15;;;;;;;1923.85;999.90;;;13.40;91.20;;;;;;5112816;28;20472;-81
2022/05/23 01:46:41;;;;;;;928.45;832.10;;;13.10;90.90;;;;;;5112803;28;20054;-81
2022/05/23 01:49:06;;;;;;;1861.70;999.90;;;13.00;78.90;;;;;;5112560;28;20472;-81
2022/05/23 01:51:32;;;;;;;1900.40;999.90;;;13.00;85.00;;;;;;5094641;28;20051;-82
2022/05/23 01:53:58;;;;;;;1999.90;999.90;;;13.00;90.20;;;;;;5094448;28;20408;-81
2022/05/23 01:56:23;;;;;;;1999.90;999.90;;;13.10;93.20;;;;;;5093848;28;20361;-81
2022/05/23 02:01:33;;;;;;;1732.88;999.90;;;13.10;99.90;;;;;;5093847;28;20063;-81
2022/05/23 02:03:59;;;;;;;1299.15;993.45;;;13.10;99.90;;;;;;5094117;28;20407;-81
2022/05/23 02:06:25;;;;;;;1208.40;965.75;;;13.10;99.90;;;;;;5059607;28;20172;-81
2022/05/23 02:08:50;;;;;;;1585.20;999.90;;;13.20;96.80;;;;;;5093379;28;20040;-81
2022/05/23 02:11:16;;;;;;;1999.90;999.90;;;13.30;97.80;;;;;;5111216;28;20097;-82
2022/05/23 02:13:44;;;;;;;1999.90;999.90;;;13.10;99.80;;;;;;5113317;28;20056;-81
2022/05/23 02:16:10;;;;;;;1956.07;999.90;;;13.20;99.90;;;;;;5093836;28;20046;-82
2022/05/23 02:18:35;;;;;;;1919.35;999.90;;;13.20;99.90;;;;;;5112695;28;20043;-81
2022/05/23 02:21:01;;;;;;;1943.13;999.90;;;13.20;99.90;;;;;;5093880;28;20074;-81
2022/05/23 02:23:27;;;;;;;1650.50;999.90;;;13.20;99.90;;;;;;5095294;28;20051;-81
2022/05/23 02:25:52;;;;;;;1985.10;999.90;;;13.20;99.90;;;;;;5111671;28;20043;-81
2022/05/23 02:28:21;;;;;;;1070.15;953.55;;;13.20;99.90;;;;;;5112242;28;20040;-83
2022/05/23 02:30:48;;;;;;;1606.88;999.90;;;13.20;98.70;;;;;;5092948;28;20044;-82
2022/05/23 02:33:14;;;;;;;1999.90;999.90;;;13.20;99.90;;;;;;5094312;28;20047;-82
2022/05/23 02:35:40;;;;;;;1487.20;999.90;;;13.20;99.90;;;;;;5092357;28;20047;-83
2022/05/23 02:38:06;;;;;;;1999.90;999.90;;;13.20;99.90;;;;;;5111810;28;20237;-81
2022/05/23 02:40:32;;;;;;;1341.68;996.30;;;13.20;99.90;;;;;;5094382;28;20104;-81
2022/05/23 02:42:58;;;;;;;1062.65;952.40;;;13.20;99.90;;;;;;5112141;28;20051;-81
2022/05/23 02:45:23;;;;;;;1915.05;999.90;;;13.20;99.90;;;;;;5093738;28;20051;-82
2022/05/23 02:47:52;;;;;;;1999.90;999.90;;;13.20;99.90;;;;;;5111869;28;20047;-82
2022/05/23 02:50:18;;;;;;;1948.25;999.90;;;13.40;99.90;;;;;;5093663;28;20059;-82
2022/05/23 02:52:44;;;;;;;1800.15;999.90;;;13.20;99.90;;;;;;5111226;28;20392;-81
2022/05/23 02:55:10;;;;;;;1339.20;988.60;;;13.30;99.90;;;;;;5092384;28;20044;-82
2022/05/23 02:57:36;;;;;;;1782.22;999.90;;;13.20;99.90;;;;;;5076044;28;20055;-82
2022/05/23 03:00:04;;;;;;;1776.85;999.90;;;14.70;99.90;;;;;;5111156;28;20047;-81
2022/05/23 03:05:14;;;;;;;1999.90;999.90;;;13.10;99.90;;;;;;5110978;28;20058;-81
2022/05/23 03:07:40;;;;;;;1991.47;999.90;;;13.10;99.90;;;;;;5109999;28;20040;-83
2022/05/23 03:10:06;;;;;;;1999.90;999.90;;;13.00;99.90;;;;;;5076178;28;20055;-81
2022/05/23 03:12:34;;;;;;;1506.63;999.90;;;13.00;99.90;;;;;;5111429;28;20052;-82
2022/05/23 03:15:00;;;;;;;1591.85;999.90;;;13.00;99.90;;;;;;5092466;28;20055;-81
2022/05/23 03:17:26;;;;;;;1999.90;999.90;;;13.00;99.90;;;;;;5111409;28;20048;-81
2022/05/23 03:19:52;;;;;;;1999.90;999.90;;;13.00;99.90;;;;;;5092559;28;20130;-81
2022/05/23 03:27:47;;;;;;;1808.65;999.90;;;13.10;99.90;;;;;;5111322;28;20272;-82
2022/05/23 03:30:13;;;;;;;1999.90;999.90;;;13.10;99.90;;;;;;5109981;28;20163;-82
2022/05/23 03:32:39;;;;;;;1931.43;999.90;;;13.10;99.90;;;;;;5058097;28;20058;-83
2022/05/23 03:35:07;;;;;;;1999.90;999.90;;;13.10;99.90;;;;;;5059070;28;20136;-81
2022/05/23 03:37:33;;;;;;;1999.90;999.90;;;13.00;99.90;;;;;;5093297;28;20047;-81
2022/05/23 03:40:00;;;;;;;1999.90;999.90;;;14.40;99.90;;;;;;5110619;28;20039;-82
2022/05/23 03:42:26;;;;;;;1641.78;999.90;;;13.10;99.90;;;;;;5076389;28;20428;-81
2022/05/23 03:44:54;;;;;;;1448.15;999.90;;;13.10;99.90;;;;;;5092228;28;20086;-81
2022/05/23 03:47:20;;;;;;;1462.57;999.90;;;14.20;99.90;;;;;;5076224;28;20051;-81
2022/05/23 03:49:46;;;;;;;1641.65;999.90;;;13.20;99.90;;;;;;5110099;28;20062;-81
2022/05/23 03:52:11;;;;;;;1523.22;999.90;;;13.30;99.90;;;;;;5076687;28;20130;-81
2022/05/23 03:54:37;;;;;;;1370.70;999.90;;;13.20;99.90;;;;;;5092724;28;20044;-81
2022/05/23 03:57:04;;;;;;;1771.85;999.90;;;13.20;99.90;;;;;;5092810;28;20049;-82
2022/05/23 03:59:30;;;;;;;1561.47;999.90;;;13.20;99.90;;;;;;5091890;28;20503;-80
2022/05/23 04:01:57;;;;;;;1278.65;991.13;;;13.10;99.90;;;;;;5109686;28;20557;-83
2022/05/23 04:04:31;;;;;;;1622.17;999.90;;;13.10;99.90;;;;;;5091172;28;20051;-82
2022/05/23 04:07:02;;;;;;;1366.57;990.15;;;13.00;99.90;;;;;;5109722;28;20784;-83
2022/05/23 04:09:29;;;;;;;1666.72;999.90;;;13.00;99.90;;;;;;5091403;28;20058;-82
2022/05/23 04:11:56;;;;;;;1999.90;999.90;;;12.90;99.90;;;;;;5111679;28;20055;-81
2022/05/23 04:14:22;;;;;;;1999.90;999.90;;;12.80;99.90;;;;;;5109547;28;20050;-82
2022/05/23 04:16:49;;;;;;;1869.50;999.90;;;14.00;99.90;;;;;;5110089;28;20051;-81
2022/05/23 04:19:16;;;;;;;1999.90;999.90;;;13.40;99.90;;;;;;5091681;28;20507;-82
2022/05/23 04:21:43;;;;;;;1999.90;999.90;;;12.90;99.90;;;;;;5111207;28;20039;-82
2022/05/23 04:24:10;;;;;;;1999.90;999.90;;;12.80;99.90;;;;;;5092365;28;20122;-84
2022/05/23 04:26:37;;;;;;;1999.90;999.90;;;13.40;99.90;;;;;;5111321;28;20135;-81
2022/05/23 04:29:04;;;;;;;1765.20;999.90;;;12.80;99.90;;;;;;5075763;28;20061;-81
2022/05/23 04:31:30;;;;;;;1414.88;999.90;;;12.80;99.90;;;;;;5092993;28;20123;-81
2022/05/23 04:36:40;;;;;;;1396.80;999.90;;;12.80;99.90;;;;;;5109502;28;20051;-80
2022/05/23 04:39:07;;;;;;;1403.60;999.90;;;12.80;99.90;;;;;;5092039;28;20046;-81
2022/05/23 04:41:33;;;;;;;1999.90;999.90;;;12.80;99.90;;;;;;5092542;28;20456;-81
2022/05/23 04:43:59;;;;;;;1736.57;999.90;;;12.80;99.90;;;;;;5075095;28;20300;-81
2022/05/23 04:46:27;;;;;;;1649.43;999.90;;;12.90;99.90;;;;;;5074865;28;20056;-81
2022/05/23 04:51:37;;;;;;;1999.57;999.90;;;13.80;99.90;;;;;;5092279;28;20404;-81
2022/05/23 04:54:03;;;;;;;1887.28;999.90;;;12.80;99.90;;;;;;5092451;28;20052;-83
2022/05/23 04:56:29;;;;;;;1447.82;999.90;;;12.90;99.90;;;;;;5091280;28;20043;-82
2022/05/23 04:58:55;;;;;;;1999.90;999.90;;;12.90;99.90;;;;;;5093841;28;20048;-80
2022/05/23 05:01:22;;;;;;;1999.90;999.90;;;13.00;99.90;;;;;;5094912;28;20056;-81
2022/05/23 05:03:48;;;;;;;1584.15;999.90;;;13.10;99.90;;;;;;5113969;28;20067;-81
2022/05/23 05:06:14;;;;;;;1283.75;999.90;;;13.20;99.90;;;;;;5111675;28;20071;-82
2022/05/23 05:08:40;;;;;;;1871.55;999.90;;;13.30;99.90;;;;;;5079615;28;20071;-81
2022/05/23 05:11:06;;;;;;;1769.32;999.90;;;13.40;99.90;;;;;;5096056;28;20464;-82
2022/05/23 05:13:34;;;;;;;1999.90;999.90;;;13.40;99.90;;;;;;5096621;28;20031;-81
2022/05/23 05:16:02;;;;;;;1938.10;999.90;;;13.40;99.90;;;;;;5079066;28;20515;-81
2022/05/23 05:18:32;;;;;;;1504.15;999.90;;;13.50;99.90;;;;;;5114136;28;20040;-81
2022/05/23 05:21:09;;;;;;;1822.72;999.90;;;13.60;99.90;;;;;;5114445;28;20096;-81
2022/05/23 05:23:36;;;;;;;1660.93;999.90;;;13.70;99.90;;;;;;5095321;28;20126;-82
2022/05/23 05:26:02;;;;;;;1999.90;999.90;;;14.20;99.90;;;;;;5114009;28;20130;-82
2022/05/23 05:28:29;;;;;;;1411.70;999.90;;;13.80;99.90;;;;;;5096025;28;20088;-82
2022/05/23 05:31:06;;;;;;;1999.90;999.90;;;13.80;99.90;;;;;;5078704;28;20161;-83
2022/05/23 05:33:38;;;;;;;1999.90;999.90;;;13.90;99.90;;;;;;5096576;28;20039;-80
2022/05/23 05:36:10;;;;;;;1827.28;999.90;;;14.10;99.90;;;;;;5096032;28;20044;-82
2022/05/23 05:38:55;;;;;;;1615.72;999.90;;;14.20;99.90;;;;;;5095365;28;20051;-83
2022/05/23 05:41:32;;;;;;;1959.95;999.90;;;14.30;99.90;;;;;;5095929;28;20066;-83
2022/05/23 05:44:05;;;;;;;1782.70;999.90;;;14.30;99.90;;;;;;5113923;28;20130;-83
2022/05/23 05:46:41;;;;;;;1999.90;999.90;;;14.30;99.90;;;;;;5095139;28;20073;-82
2022/05/23 05:49:12;;;;;;;1993.30;999.90;;;14.40;99.90;;;;;;5095104;28;20040;-83
2022/05/23 05:51:40;;;;;;;1999.90;999.90;;;14.40;99.90;;;;;;5095103;28;20047;-83
2022/05/23 05:54:11;;;;;;;1884.97;999.90;;;14.40;99.90;;;;;;5095998;28;20383;-82
2022/05/23 05:56:43;;;;;;;1995.45;999.90;;;13.60;99.90;;;;;;5113357;28;20036;-83
2022/05/23 05:59:09;;;;;;;1973.05;999.90;;;14.50;99.90;;;;;;5096240;28;20043;-83
2022/05/23 06:01:36;;;;;;;1822.93;999.90;;;14.50;99.90;;;;;;5095743;28;20066;-82
2022/05/23 06:04:03;;;;;;;1806.75;999.90;;;14.60;99.90;;;;;;5062658;28;20093;-82
2022/05/23 06:11:59;;;;;;;1750.10;999.90;;;14.80;99.90;;;;;;5080823;28;20044;-82
2022/05/23 06:14:25;;;;;;;1999.90;999.90;;;14.90;99.90;;;;;;5113732;28;20333;-82
2022/05/23 06:16:51;;;;;;;1999.90;999.90;;;15.00;99.90;;;;;;5113242;28;20050;-82
2022/05/23 06:19:17;;;;;;;1999.90;999.90;;;15.20;99.90;;;;;;5112061;28;20109;-82
2022/05/23 06:21:43;;;;;;;1999.90;999.90;;;15.40;99.90;;;;;;5094459;28;20452;-82
2022/05/23 06:24:09;;;;;;;1999.90;999.90;;;15.50;99.90;;;;;;5077930;28;20116;-82
2022/05/23 06:26:34;;;;;;;1999.90;999.90;;;15.80;99.90;;;;;;5077044;28;20047;-83
2022/05/23 06:29:00;;;;;;;1999.90;999.90;;;16.10;99.90;;;;;;5112777;28;20082;-82
2022/05/23 06:31:26;;;;;;;1999.90;999.90;;;16.30;99.90;;;;;;5111906;28;20040;-83
2022/05/23 06:33:52;;;;;;;1999.90;999.90;;;16.50;99.90;;;;;;5078285;28;20055;-82
2022/05/23 06:36:18;;;;;;;1999.90;999.90;;;16.60;99.90;;;;;;5094266;28;20063;-83
2022/05/23 06:38:44;;;;;;;1999.90;999.90;;;16.70;89.30;;;;;;5094657;28;20395;-82
2022/05/23 06:41:10;;;;;;;1999.90;999.90;;;16.80;85.90;;;;;;5112077;28;20035;-83
2022/05/23 06:43:38;;;;;;;1999.90;999.90;;;16.90;61.80;;;;;;5112675;28;20039;-82
2022/05/23 06:46:05;;;;;;;1999.90;999.90;;;17.00;82.40;;;;;;5112230;28;20130;-83
2022/05/23 06:48:32;;;;;;;1999.90;999.90;;;17.10;90.50;;;;;;5094508;28;20047;-83
2022/05/23 06:50:58;;;;;;;1999.90;999.90;;;17.20;98.40;;;;;;5094420;28;20043;-82
2022/05/23 06:53:25;;;;;;;1999.90;999.90;;;17.40;86.40;;;;;;5112205;28;20118;-82
2022/05/23 06:55:54;;;;;;;1999.90;999.90;;;17.40;64.80;;;;;;5112698;28;20043;-82
2022/05/23 06:58:21;;;;;;;1987.22;999.90;;;17.60;85.60;;;;;;5093981;28;20132;-83
2022/05/23 07:00:48;;;;;;;1999.90;999.90;;;17.70;54.60;;;;;;5093636;28;20197;-82
2022/05/23 07:03:15;;;;;;;1999.90;999.90;;;17.90;35.80;;;;;;5094557;28;20388;-82
2022/05/23 07:14:00;;;;;;;1753.97;999.90;;;20.10;1.00;;;;;;5073548;28;20134;-82
2022/05/23 07:16:28;;;;;;;1029.93;924.72;;;20.70;1.00;;;;;;5111382;28;20476;-82
2022/05/23 07:18:54;;;;;;;;;;;21.10;1.00;;;;;;5112701;28;20146;-83
2022/05/23 07:21:24;;;;;;;779.80;717.83;;;21.70;1.00;;;;;;5110926;28;20015;-83
2022/05/23 07:23:50;;;;;;;742.30;680.83;;;22.40;1.00;;;;;;5112328;28;20054;-82
2022/05/23 07:26:19;;;;;;;589.38;543.60;;;23.20;1.00;;;;;;5112175;28;20087;-82
2022/05/23 07:28:46;;;;;;;691.00;634.97;;;23.90;1.00;;;;;;5077628;28;20108;-83
2022/05/23 07:31:13;;;;;;;927.87;838.50;;;24.40;99.90;;;;;;5093262;28;20054;-82
2022/05/23 07:33:39;;;;;;;788.67;716.78;;;25.20;1.00;;;;;;5111638;28;20054;-83
2022/05/23 07:36:07;;;;;;;737.75;678.45;;;25.80;99.90;;;;;;5077014;28;20051;-82
2022/05/23 07:38:33;;;;;;;610.92;564.38;;;26.90;99.90;;;;;;5093645;28;20047;-82
2022/05/23 07:40:59;;;;;;;642.15;594.17;;;26.40;99.90;;;;;;5111652;28;20472;-83
2022/05/23 07:43:25;;;;;;;535.38;494.65;;;26.20;99.90;;;;;;5092415;28;20126;-83
2022/05/23 07:45:52;;;;;;;615.80;563.20;;;26.10;99.90;;;;;;5093108;28;20127;-82
2022/05/23 07:48:19;;;;;;;691.85;633.60;;;26.20;99.90;;;;;;5093146;28;20466;-83
2022/05/23 07:50:46;;;;;;;387.08;348.40;;;26.50;99.90;;;;;;5076369;28;20048;-82
2022/05/23 08:01:27;;;;;;;732.78;666.22;;;27.30;99.90;;;;;;5092333;28;20105;-83
2022/05/23 08:03:54;;;;;;;681.55;614.28;;;27.80;99.90;;;;;;5111361;28;20539;-83
2022/05/23 08:06:20;;;;;;;550.92;499.55;;;27.40;99.90;;;;;;5092222;28;20150;-83
2022/05/23 08:08:46;;;;;;;506.55;465.17;;;26.90;99.90;;;;;;5111163;28;20126;-83
2022/05/23 08:11:13;;;;;;;685.05;628.47;;;26.20;99.90;;;;;;5076350;28;20050;-82
2022/05/23 08:13:41;;;;;;;701.85;642.88;;;25.60;99.90;;;;;;5111195;28;20047;-82
2022/05/23 08:16:07;;;;;;;646.65;594.05;;;25.60;99.90;;;;;;5112036;28;20055;-83
2022/05/23 08:18:33;;;;;;;661.60;608.38;;;25.60;99.90;;;;;;5093884;28;20044;-83
2022/05/23 08:20:59;;;;;;;798.70;732.20;;;25.70;99.90;;;;;;5093343;28;20044;-82
2022/05/23 08:23:25;;;;;;;703.97;643.28;;;26.10;99.90;;;;;;5110847;28;20070;-83
2022/05/23 08:25:51;;;;;;;683.10;626.70;;;26.40;99.90;;;;;;5092492;28;20488;-83
2022/05/23 08:28:17;;;;;;;754.53;691.50;;;27.10;99.90;;;;;;5111387;28;20040;-82
2022/05/23 08:30:43;;;;;;;646.42;592.40;;;27.90;99.90;;;;;;5110716;28;20567;-82
2022/05/23 08:33:08;;;;;;;523.05;484.50;;;28.50;99.90;;;;;;5078385;28;20044;-82
2022/05/23 08:35:34;;;;;;;552.33;510.83;;;29.00;99.90;;;;;;5096167;28;20074;-83
2022/05/23 08:38:01;;;;;;;661.00;607.00;;;29.80;99.90;;;;;;5097000;28;20120;-82
2022/05/23 08:40:49;;;;;;;549.38;507.98;;;29.90;99.90;;;;;;5097069;28;20043;-84
2022/05/23 08:43:26;;;;;;;476.08;439.55;;;30.00;99.90;;;;;;5097353;28;20047;-82
2022/05/23 08:45:56;;;;;;;657.25;606.03;;;30.40;99.90;;;;;;5114068;28;20043;-83
2022/05/23 08:48:43;;;;;;;794.22;723.55;;;30.30;99.90;;;;;;5097053;28;20169;-83
2022/05/23 08:51:15;;;;;;;740.30;685.38;;;30.80;99.90;;;;;;5097021;28;20479;-83
2022/05/23 08:53:50;;;;;;;719.78;656.40;;;30.70;99.90;;;;;;5114892;28;20051;-82
2022/05/23 08:56:36;;;;;;;720.72;660.13;;;30.60;99.90;;;;;;5096548;28;20047;-83
2022/05/23 08:59:05;;;;;;;813.63;745.15;;;29.50;99.90;;;;;;5096735;28;20051;-82
2022/05/23 09:01:48;;;;;;;675.72;614.53;;;29.50;99.90;;;;;;5095767;28;20094;-83
2022/05/23 09:04:52;;;;;;;713.13;649.60;;;30.20;99.90;;;;;;5096942;28;20468;-83
2022/05/23 09:07:35;;;;;;;834.28;759.67;;;31.50;99.90;;;;;;5113528;28;20150;-83
2022/05/23 09:10:08;;;;;;;656.45;601.33;;;31.40;99.90;;;;;;5096719;28;20044;-82
2022/05/23 09:12:34;;;;;;;586.00;540.13;;;32.20;99.90;;;;;;5096327;28;20143;-83
2022/05/23 09:15:00;;;;;;;695.30;635.72;;;32.30;99.90;;;;;;5096206;28;20098;-83
2022/05/23 09:17:32;;;;;;;693.40;635.13;;;32.00;99.90;;;;;;5114306;28;20097;-83
2022/05/23 09:20:26;;;;;;;544.47;500.75;;;32.20;99.90;;;;;;5079800;28;20047;-83
2022/05/23 09:22:59;;;;;;;740.88;675.80;;;32.70;99.90;;;;;;5069719;28;20070;-83
2022/05/23 09:25:26;;;;;;;612.53;561.22;;;32.60;99.90;;;;;;5114657;28;20387;-83
2022/05/23 09:28:14;;;;;;;592.75;542.83;;;32.00;99.90;;;;;;5113544;28;20079;-83
2022/05/23 09:30:42;;;;;;;795.13;731.42;;;31.10;99.90;;;;;;5113846;28;20101;-83
2022/05/23 09:33:15;;;;;;;837.90;765.22;;;30.30;99.90;;;;;;5114507;28;20039;-83
2022/05/23 09:35:46;;;;;;;851.05;771.08;;;29.40;99.90;;;;;;5114054;28;20083;-83
2022/05/23 09:38:22;;;;;;;693.28;636.63;;;28.90;99.90;;;;;;5096250;28;20047;-83
2022/05/23 09:40:49;;;;;;;795.10;724.05;;;27.80;99.90;;;;;;5095778;28;20120;-83
2022/05/23 09:49:12;;;;;;;894.47;808.15;;;27.20;99.90;;;;;;5096336;28;20062;-83
2022/05/23 09:52:00;;;;;;;817.30;742.88;;;27.30;99.90;;;;;;5114141;28;20067;-83
2022/05/23 09:54:29;;;;;;;830.97;753.75;;;27.00;99.90;;;;;;5096376;28;20373;-83
2022/05/23 09:56:56;;;;;;;864.65;783.95;;;26.80;99.90;;;;;;5095663;28;20059;-83
2022/05/23 09:59:27;;;;;;;;;;;26.50;99.90;;;;;;5096036;28;20114;-84
2022/05/23 10:01:54;;;;;;;816.25;742.70;;;26.20;99.90;;;;;;5095667;28;19920;-83
2022/05/23 10:04:29;;;;;;;786.03;716.63;;;26.00;99.90;;;;;;5116684;28;20408;-83
2022/05/23 10:06:55;;;;;;;833.75;758.95;;;25.90;99.90;;;;;;5097438;28;20455;-83
2022/05/23 10:09:31;;;;;;;849.47;770.15;;;26.00;99.90;;;;;;5126115;28;20040;-83
2022/05/23 10:12:09;;;;;;;879.38;795.55;;;26.30;99.90;;;;;;5114934;28;20100;-83
2022/05/23 10:14:42;;;;;;;901.13;811.97;;;26.70;99.90;;;;;;5113787;28;20039;-83
2022/05/23 10:17:08;;;;;;;842.63;767.13;;;26.60;99.90;;;;;;5078892;28;20051;-83
2022/05/23 10:19:38;;;;;;;663.03;605.65;;;26.70;99.90;;;;;;5114265;28;20040;-82
2022/05/23 10:22:25;;;;;;;872.45;787.92;;;26.80;99.90;;;;;;5113412;28;20097;-83
2022/05/23 10:25:05;;;;;;;770.63;704.08;;;26.70;99.90;;;;;;5113546;28;20108;-83
2022/05/23 10:27:50;;;;;;;770.30;701.35;;;27.80;99.90;;;;;;5095854;28;20050;-83
2022/05/23 10:30:19;;;;;;;787.03;712.80;;;27.20;99.90;;;;;;5113373;28;20188;-83
2022/05/23 10:32:54;;;;;;;922.17;829.33;;;27.70;99.90;;;;;;5078993;28;20055;-83
2022/05/23 10:35:43;;;;;;;751.22;679.80;;;28.00;99.90;;;;;;5114936;28;20043;-82
2022/05/23 10:44:00;;;;;;;807.83;727.28;;;28.70;99.90;;;;;;5113434;28;20127;-82
2022/05/23 10:46:28;;;;;;;763.67;694.72;;;29.30;99.90;;;;;;5094171;28;20184;-83
2022/05/23 10:49:15;;;;;;;670.03;610.70;;;29.80;99.90;;;;;;5078069;28;20040;-83
2022/05/23 10:51:59;;;;;;;666.03;613.88;;;30.90;99.90;;;;;;5094489;28;20048;-82
2022/05/23 10:54:46;;;;;;;754.58;683.33;;;31.00;99.90;;;;;;5112885;28;20512;-83
2022/05/23 10:57:17;;;;;;;622.70;573.67;;;30.90;99.90;;;;;;5094374;28;20504;-82
2022/05/23 11:00:02;;;;;;;645.03;596.40;;;31.30;99.90;;;;;;5112379;28;20147;-84
2022/05/23 11:03:02;;;;;;;456.55;421.45;;;32.40;99.90;;;;;;5112133;28;20059;-83
2022/05/23 11:05:37;;;;;;;439.75;408.92;;;33.10;99.90;;;;;;5112667;28;20101;-83
2022/05/23 11:08:43;;;;;;;399.33;371.75;;;32.30;99.90;;;;;;5093621;28;20544;-83
2022/05/23 11:11:09;;;;;;;340.90;319.75;;;32.20;99.90;;;;;;5094295;28;20043;-83
2022/05/23 11:13:47;;;;;;;395.77;362.95;;;31.80;99.90;;;;;;5094207;28;20047;-83
2022/05/23 11:16:12;;;;;;;;;;;32.30;99.90;;;;;;5111769;28;20309;-83
2022/05/23 11:19:02;;;;;;;236.52;221.63;;;31.90;99.90;;;;;;5093944;28;19923;-85
2022/05/23 11:21:53;;;;;;;252.02;233.63;;;32.50;99.90;;;;;;5112508;28;20054;-83
2022/05/23 11:24:25;;;;;;;181.35;169.77;;;32.60;99.90;;;;;;5111408;28;20142;-84
2022/05/23 11:33:41;;;;;;;168.85;158.38;;;33.50;99.90;;;;;;5111998;28;20154;-83
2022/05/23 11:35:23;;;;;;;146.02;137.27;;;32.40;99.90;;;;;;5093536;28;20122;-83
2022/05/23 11:37:53;;;;;;;319.13;293.77;;;33.00;99.90;;;;;;5093668;28;20480;-83
2022/05/23 11:40:25;;;;;;;185.40;173.88;;;33.10;99.90;;;;;;5094018;28;20039;-83
2022/05/23 11:43:01;;;;;;;239.05;223.20;;;33.00;99.90;;;;;;5093486;28;20078;-83
2022/05/23 11:46:02;;;;;;;210.63;197.82;;;33.30;99.90;;;;;;5110915;28;20504;-83
2022/05/23 11:48:40;;;;;;;197.18;184.85;;;33.30;99.90;;;;;;5077218;28;20112;-83
2022/05/23 11:51:18;;;;;;;343.40;318.25;;;33.80;99.90;;;;;;5112032;28;20044;-83
2022/05/23 11:53:56;;;;;;;282.15;263.88;;;33.50;99.90;;;;;;5111478;28;20130;-83
2022/05/23 11:57:00;;;;;;;295.55;276.17;;;32.60;99.90;;;;;;5111001;28;20512;-83
2022/05/23 11:59:26;;;;;;;394.13;364.25;;;32.60;99.90;;;;;;5096096;28;20047;-84
2022/05/23 12:02:07;;;;;;;415.45;385.88;;;32.30;99.90;;;;;;5089232;28;20056;-84
2022/05/23 12:04:34;;;;;;;463.42;426.00;;;31.70;99.90;;;;;;5089767;28;20500;-83
2022/05/23 12:07:01;;;;;;;458.15;423.63;;;31.60;99.90;;;;;;5089844;28;20516;-83
2022/05/23 12:09:30;;;;;;;383.15;354.70;;;31.70;99.90;;;;;;5094197;28;20051;-84
2022/05/23 12:12:33;;;;;;;488.38;449.55;;;31.80;99.90;;;;;;5093659;28;20056;-81
2022/05/23 12:14:59;;;;;;;367.60;342.40;;;32.10;99.90;;;;;;5093041;28;20330;-84
2022/05/23 12:17:31;;;;;;;423.43;393.00;;;31.90;99.90;;;;;;5094927;28;20143;-83
2022/05/23 12:19:59;;;;;;;518.17;475.92;;;32.10;99.90;;;;;;5094141;28;20599;-83
2022/05/23 12:22:58;;;;;;;656.60;599.75;;;31.90;99.90;;;;;;5094187;28;20131;-84
2022/05/23 12:25:25;;;;;;;545.40;500.02;;;31.00;99.90;;;;;;5093392;28;20044;-83
2022/05/23 12:27:51;;;;;;;759.38;688.13;;;30.90;99.90;;;;;;5093631;28;20554;-83
2022/05/23 12:30:17;;;;;;;538.78;496.08;;;30.50;99.90;;;;;;5093756;28;20127;-83
2022/05/23 12:33:03;;;;;;;707.55;640.75;;;29.70;99.90;;;;;;5076830;28;20040;-85
2022/05/23 12:35:40;;;;;;;689.38;631.20;;;29.00;99.90;;;;;;5075617;28;20561;-83
2022/05/23 12:38:28;;;;;;;838.97;752.90;;;28.50;99.90;;;;;;5093349;28;20538;-84
2022/05/23 12:41:29;;;;;;;608.22;555.17;;;28.00;99.90;;;;;;5093474;28;20297;-83
2022/05/23 12:44:30;;;;;;;794.00;720.92;;;27.60;99.90;;;;;;5075399;28;20131;-83
2022/05/23 12:46:57;;;;;;;849.60;762.03;;;27.40;99.90;;;;;;5092790;28;20440;-83
2022/05/23 12:49:50;;;;;;;842.57;755.83;;;27.40;99.90;;;;;;5093446;28;20079;-83
2022/05/23 12:52:45;;;;;;;847.88;760.95;;;27.30;99.90;;;;;;5093730;28;20359;-83
2022/05/23 12:55:25;;;;;;;796.80;722.30;;;27.10;99.90;;;;;;5094722;28;20048;-83
2022/05/23 12:58:06;;;;;;;737.90;670.60;;;27.00;99.90;;;;;;5096002;28;20127;-83
2022/05/23 13:00:49;;;;;;;837.42;758.70;;;27.10;99.90;;;;;;5094929;28;20133;-83
2022/05/23 13:03:21;;;;;;;711.65;646.38;;;27.30;99.90;;;;;;5093965;28;20060;-84
2022/05/23 13:06:09;;;;;;;733.13;666.67;;;27.20;99.90;;;;;;5092693;28;20058;-83
2022/05/23 13:08:49;;;;;;;826.43;747.23;;;26.80;99.90;;;;;;5093451;28;20123;-84
2022/05/23 13:11:21;;;;;;;843.28;757.45;;;26.60;99.90;;;;;;5092665;28;20460;-83
2022/05/23 13:13:49;;;;;;;838.90;753.95;;;26.40;99.90;;;;;;5093268;28;20066;-83
2022/05/23 13:16:33;;;;;;;736.03;665.13;;;26.10;99.90;;;;;;5092672;28;20502;-83
2022/05/23 13:22:11;;;;;;;835.05;744.15;;;25.70;99.90;;;;;;5093901;28;20059;-82
2022/05/23 13:24:53;;;;;;;898.95;810.03;;;25.50;99.90;;;;;;5092958;28;20131;-84
2022/05/23 13:27:22;;;;;;;1157.95;848.15;;;25.10;99.90;;;;;;5092719;28;20564;-82